Time;durP1;ratioP1;P1;durP2;ratioP2;P2;SDS_P1;SDS_P2;PMS_P1;PMS_P2;Temp;Humidity;BMP_temperature;BMP_pressure;BME280_temperature;BME280_humidity;BME280_pressure;Samples;Min_cycle;Max_cycle;Signal;HPM_P1;HPM_P2
2022/11/29 00:02:15;;;;;;;30.57;24.97;;;;;;;6.16;100.00;99871.38;5001641;28;20242;-68
2022/11/29 00:04:41;;;;;;;35.20;26.30;;;;;;;6.23;100.00;99870.25;5022191;28;20661;-68
2022/11/29 00:07:06;;;;;;;28.77;25.07;;;;;;;6.29;100.00;99868.28;5023313;28;20209;-68
2022/11/29 00:09:31;;;;;;;32.97;24.93;;;;;;;6.18;100.00;99867.88;5031611;28;20233;-69
2022/11/29 00:12:12;;;;;;;32.17;25.97;;;;;;;6.25;100.00;99866.75;5030564;28;20320;-68
2022/11/29 00:14:37;;;;;;;31.20;25.27;;;;;;;6.28;100.00;99863.22;5011204;28;20649;-69
2022/11/29 00:17:03;;;;;;;30.33;26.33;;;;;;;6.34;100.00;99867.25;5035733;28;20231;-69
2022/11/29 00:19:33;;;;;;;33.13;25.67;;;;;;;6.28;100.00;99869.16;5032083;28;20296;-70
2022/11/29 00:21:59;;;;;;;28.43;24.80;;;;;;;6.22;100.00;99861.75;5014952;28;20225;-70
2022/11/29 00:24:25;;;;;;;28.47;25.13;;;;;;;6.22;100.00;99866.84;5024042;28;20563;-70
2022/11/29 00:26:50;;;;;;;32.53;25.63;;;;;;;6.30;100.00;99858.88;5030747;28;20260;-69
2022/11/29 00:29:16;;;;;;;27.47;24.53;;;;;;;6.30;100.00;99872.50;5030667;28;20546;-69
2022/11/29 00:31:41;;;;;;;30.73;25.13;;;;;;;6.30;100.00;99872.50;5013169;28;20326;-69
2022/11/29 00:34:08;;;;;;;37.33;26.23;;;;;;;6.35;100.00;99868.91;5034195;28;20273;-69
2022/11/29 00:36:34;;;;;;;31.17;26.00;;;;;;;6.37;100.00;99864.59;5009971;28;20186;-70
2022/11/29 00:39:00;;;;;;;32.23;25.23;;;;;;;6.42;100.00;99870.31;5024695;28;20208;-70
2022/11/29 00:41:26;;;;;;;28.73;24.27;;;;;;;6.40;100.00;99870.41;5031073;28;20240;-70
2022/11/29 00:43:51;;;;;;;32.10;24.33;;;;;;;6.43;100.00;99870.25;5018684;28;20939;-70
2022/11/29 00:46:16;;;;;;;28.60;24.73;;;;;;;6.35;100.00;99874.88;5031489;28;20184;-70
2022/11/29 00:48:42;;;;;;;28.47;23.60;;;;;;;6.18;100.00;99877.25;5011700;28;20303;-71
2022/11/29 00:51:07;;;;;;;28.57;23.20;;;;;;;6.24;100.00;99877.84;5029673;28;20221;-70
2022/11/29 00:53:34;;;;;;;28.00;22.20;;;;;;;6.27;100.00;99882.00;5038355;28;20258;-70
2022/11/29 00:55:59;;;;;;;27.57;23.30;;;;;;;6.28;100.00;99881.94;5031214;28;20209;-70
2022/11/29 00:58:25;;;;;;;29.57;23.10;;;;;;;6.24;100.00;99879.56;5029011;28;20239;-70
2022/11/29 01:00:52;;;;;;;26.03;23.23;;;;;;;6.25;100.00;99876.97;5027217;28;20762;-70
2022/11/29 01:03:17;;;;;;;31.20;24.63;;;;;;;6.35;100.00;99872.31;5039793;28;20706;-70
2022/11/29 01:05:44;;;;;;;28.13;23.60;;;;;;;6.25;100.00;99879.53;5031300;28;20197;-69
2022/11/29 01:08:10;;;;;;;26.87;23.57;;;;;;;6.36;100.00;99876.50;5011745;28;20212;-70
2022/11/29 01:10:36;;;;;;;29.30;24.30;;;;;;;6.40;100.00;99875.50;5004001;28;20324;-70
2022/11/29 01:13:01;;;;;;;32.13;24.70;;;;;;;6.44;100.00;99877.03;5037638;28;20269;-70
2022/11/29 01:15:27;;;;;;;27.87;23.90;;;;;;;6.33;100.00;99880.94;5046610;28;20213;-70
2022/11/29 01:17:53;;;;;;;27.20;23.20;;;;;;;6.30;100.00;99880.16;5045891;28;20742;-69
2022/11/29 01:20:19;;;;;;;30.67;25.00;;;;;;;6.29;100.00;99875.94;5023186;28;20185;-68
2022/11/29 01:22:44;;;;;;;28.67;23.87;;;;;;;6.30;100.00;99880.16;5025989;28;20185;-68
2022/11/29 01:25:11;;;;;;;26.47;22.20;;;;;;;6.35;100.00;99877.44;5034797;28;20192;-69
2022/11/29 01:27:36;;;;;;;25.40;22.07;;;;;;;6.21;100.00;99880.50;5034409;28;20186;-69
2022/11/29 01:30:03;;;;;;;22.73;20.33;;;;;;;6.29;100.00;99887.91;5035132;28;20698;-68
2022/11/29 01:32:28;;;;;;;23.70;20.93;;;;;;;6.33;100.00;99886.88;5023535;28;20225;-69
2022/11/29 01:34:53;;;;;;;22.77;20.20;;;;;;;6.33;100.00;99889.41;5034797;28;20524;-69
2022/11/29 01:37:19;;;;;;;24.50;21.40;;;;;;;6.39;100.00;99890.91;5034363;28;20198;-69
2022/11/29 01:39:44;;;;;;;23.50;21.07;;;;;;;6.40;100.00;99901.06;5050091;28;20180;-69
2022/11/29 01:42:10;;;;;;;24.97;21.43;;;;;;;6.41;100.00;99897.63;5039649;28;20240;-69
2022/11/29 01:44:36;;;;;;;24.57;21.30;;;;;;;6.43;100.00;99902.66;5033289;28;20276;-69
2022/11/29 01:47:01;;;;;;;25.07;22.03;;;;;;;6.39;100.00;99901.94;5048923;28;20181;-69
2022/11/29 01:49:28;;;;;;;26.40;22.10;;;;;;;6.41;100.00;99907.00;5034927;28;20180;-69
2022/11/29 01:51:58;;;;;;;22.97;20.47;;;;;;;6.40;100.00;99907.88;5038520;28;20729;-68
2022/11/29 01:54:23;;;;;;;23.67;21.17;;;;;;;6.48;100.00;99902.47;5015001;28;20190;-68
2022/11/29 01:56:50;;;;;;;23.67;20.23;;;;;;;6.46;100.00;99905.91;5032704;28;20247;-68
2022/11/29 01:59:19;;;;;;;21.30;19.00;;;;;;;6.42;100.00;99904.38;5049856;28;20281;-69
2022/11/29 02:01:44;;;;;;;22.87;20.00;;;;;;;6.42;100.00;99901.81;5020086;28;20229;-68
2022/11/29 02:04:10;;;;;;;22.00;19.70;;;;;;;6.43;100.00;99900.91;5023346;28;20198;-69
2022/11/29 02:06:37;;;;;;;22.60;19.20;;;;;;;6.37;100.00;99900.34;5032424;28;20201;-69
2022/11/29 02:09:03;;;;;;;19.77;17.87;;;;;;;6.33;100.00;99901.38;5048668;28;20240;-69
2022/11/29 02:11:47;;;;;;;20.23;18.23;;;;;;;6.18;100.00;99900.22;5035097;28;20229;-69
2022/11/29 02:14:34;;;;;;;22.20;19.33;;;;;;;6.15;100.00;99903.75;5024271;28;20259;-69
2022/11/29 02:17:08;;;;;;;20.50;18.40;;;;;;;6.06;100.00;99904.13;5031756;28;20549;-69
2022/11/29 02:19:39;;;;;;;20.90;18.77;;;;;;;6.12;100.00;99901.31;5034303;28;20196;-69
2022/11/29 02:22:17;;;;;;;21.97;19.67;;;;;;;6.16;100.00;99907.97;5038914;28;20227;-69
2022/11/29 02:25:14;;;;;;;21.03;18.87;;;;;;;6.01;100.00;99904.28;5015797;28;20178;-69
2022/11/29 02:28:30;;;;;;;21.20;18.90;;;;;;;6.02;100.00;99902.59;5033359;28;20186;-69
2022/11/29 02:31:19;;;;;;;19.37;17.47;;;;;;;6.16;100.00;99907.16;5023666;28;20369;-69
2022/11/29 02:34:06;;;;;;;20.00;18.00;;;;;;;6.13;100.00;99905.53;5029441;28;20287;-69
2022/11/29 02:36:55;;;;;;;18.93;17.03;;;;;;;6.11;100.00;99907.31;5032543;28;20274;-69
2022/11/29 02:39:50;;;;;;;18.47;16.70;;;;;;;6.06;100.00;99902.38;5015855;28;20270;-69
2022/11/29 02:42:57;;;;;;;17.53;15.63;;;;;;;6.03;100.00;99901.66;4984655;28;20230;-69
2022/11/29 02:45:45;;;;;;;20.13;17.10;;;;;;;6.10;100.00;99903.94;5001897;28;20235;-69
2022/11/29 02:48:28;;;;;;;16.83;15.23;;;;;;;6.07;100.00;99909.16;4975393;28;20225;-69
2022/11/29 02:51:08;;;;;;;16.67;15.17;;;;;;;6.11;100.00;99904.75;4997280;28;20241;-69
2022/11/29 02:53:57;;;;;;;15.53;14.13;;;;;;;6.01;100.00;99913.69;4991148;28;20701;-69
2022/11/29 02:56:33;;;;;;;17.10;15.50;;;;;;;6.12;100.00;99914.91;4990658;28;20240;-69
2022/11/29 02:59:28;;;;;;;16.03;14.53;;;;;;;6.08;100.00;99910.81;4975022;28;20193;-69
2022/11/29 03:02:31;;;;;;;15.20;13.90;;;;;;;6.04;100.00;99914.41;4978221;28;20315;-69
2022/11/29 03:05:39;;;;;;;16.50;14.80;;;;;;;5.90;100.00;99919.16;4991592;28;20175;-69
2022/11/29 03:08:16;;;;;;;15.80;14.33;;;;;;;5.74;100.00;99908.69;4991372;28;20190;-69
2022/11/29 03:11:17;;;;;;;15.53;14.23;;;;;;;5.73;100.00;99919.78;4980994;28;20780;-69
2022/11/29 03:14:11;;;;;;;15.90;14.50;;;;;;;5.75;100.00;99921.38;5001073;28;20182;-70
2022/11/29 03:16:56;;;;;;;16.23;14.83;;;;;;;5.90;100.00;99926.81;4996517;28;20732;-69
2022/11/29 03:19:28;;;;;;;16.97;15.27;;;;;;;5.96;100.00;99919.75;5025273;28;20208;-69
2022/11/29 03:22:18;;;;;;;15.73;14.33;;;;;;;6.01;100.00;99926.44;5013635;28;20224;-69
2022/11/29 03:25:02;;;;;;;16.80;15.20;;;;;;;5.95;100.00;99928.31;5032545;28;20565;-69
2022/11/29 03:27:33;;;;;;;14.90;13.50;;;;;;;6.03;100.00;99925.50;5032485;28;20216;-69
2022/11/29 03:30:04;;;;;;;16.73;15.13;;;;;;;6.05;100.00;99926.25;5012252;28;20179;-69
2022/11/29 03:32:49;;;;;;;16.27;14.80;;;;;;;6.00;100.00;99935.00;5004967;28;20579;-69
2022/11/29 03:35:28;;;;;;;17.17;15.47;;;;;;;5.85;100.00;99929.53;5015007;28;20197;-70
2022/11/29 03:38:02;;;;;;;17.20;15.50;;;;;;;5.87;100.00;99939.72;5014478;28;20303;-69
2022/11/29 03:40:37;;;;;;;18.10;16.37;;;;;;;5.96;100.00;99935.06;5015092;28;20227;-70
2022/11/29 03:43:12;;;;;;;18.07;16.27;;;;;;;6.00;100.00;99929.88;5031701;28;20199;-69
2022/11/29 03:45:50;;;;;;;18.20;16.53;;;;;;;5.94;100.00;99938.56;5032053;28;20232;-69
2022/11/29 03:48:34;;;;;;;17.43;15.73;;;;;;;5.79;100.00;99943.38;5032072;28;20214;-69
2022/11/29 03:51:12;;;;;;;18.40;16.60;;;;;;;5.81;100.00;99949.25;5012796;28;20703;-69
2022/11/29 03:53:52;;;;;;;17.27;15.57;;;;;;;5.78;100.00;99941.72;5009752;28;20187;-69
2022/11/29 03:56:34;;;;;;;17.40;15.60;;;;;;;5.87;100.00;99943.09;5010705;28;20217;-69
2022/11/29 03:59:21;;;;;;;18.07;16.33;;;;;;;5.64;100.00;99944.78;5024765;28;20209;-69
2022/11/29 04:02:28;;;;;;;18.17;16.33;;;;;;;5.56;100.00;99939.13;4990944;28;20217;-69
2022/11/29 04:05:02;;;;;;;17.67;15.87;;;;;;;5.63;100.00;99938.00;4975842;28;20797;-69
2022/11/29 04:07:53;;;;;;;17.07;15.37;;;;;;;5.71;100.00;99940.28;5027988;28;20209;-69
2022/11/29 04:10:36;;;;;;;19.50;17.50;;;;;;;5.74;100.00;99945.28;5002752;28;20275;-69
2022/11/29 04:13:34;;;;;;;18.00;16.30;;;;;;;5.80;100.00;99944.19;5019896;28;20188;-69
2022/11/29 04:16:35;;;;;;;18.47;16.67;;;;;;;5.77;100.00;99949.44;5003591;28;20308;-69
2022/11/29 04:19:20;;;;;;;19.63;17.63;;;;;;;5.77;100.00;99946.88;5030997;28;20193;-69
2022/11/29 04:22:06;;;;;;;17.47;15.67;;;;;;;5.78;100.00;99957.03;5003837;28;20247;-69
2022/11/29 04:24:53;;;;;;;19.27;17.17;;;;;;;5.79;100.00;99953.59;5014034;28;20176;-69
2022/11/29 04:27:40;;;;;;;19.97;16.93;;;;;;;5.77;100.00;99955.34;5010215;28;20198;-69
2022/11/29 04:30:19;;;;;;;18.07;16.27;;;;;;;5.79;100.00;99953.59;5007165;28;20527;-69
2022/11/29 04:33:28;;;;;;;17.90;16.10;;;;;;;5.80;100.00;99960.38;4989674;28;20227;-70
2022/11/29 04:36:26;;;;;;;18.17;16.37;;;;;;;5.94;100.00;99959.84;5010702;28;20181;-69
2022/11/29 04:38:51;;;;;;;18.20;16.30;;;;;;;5.96;100.00;99968.25;4970094;28;20247;-69
2022/11/29 04:41:59;;;;;;;18.93;17.03;;;;;;;5.64;100.00;99970.31;4960718;28;20696;-69
2022/11/29 04:44:34;;;;;;;19.20;17.30;;;;;;;5.70;100.00;99970.97;4893933;29;20716;-69
2022/11/29 04:47:18;;;;;;;18.13;16.13;;;;;;;5.79;100.00;99976.56;4892913;29;20206;-69
2022/11/29 04:49:59;;;;;;;17.70;15.80;;;;;;;5.78;100.00;99971.50;4876666;29;20647;-69
2022/11/29 04:52:45;;;;;;;18.43;16.53;;;;;;;5.72;100.00;99976.81;4854065;29;20217;-69
2022/11/29 04:55:28;;;;;;;17.23;15.60;;;;;;;5.51;100.00;99986.94;4892568;29;20221;-69
2022/11/29 04:58:18;;;;;;;17.40;15.67;;;;;;;5.63;100.00;99973.72;4885691;29;20210;-69
2022/11/29 05:00:58;;;;;;;17.80;15.97;;;;;;;5.53;100.00;99986.88;4876693;29;20284;-69
2022/11/29 05:03:49;;;;;;;18.00;16.10;;;;;;;5.54;100.00;99988.53;4898095;29;20190;-70
2022/11/29 05:06:15;;;;;;;17.17;15.43;;;;;;;5.81;100.00;99991.81;4890562;29;20229;-70
2022/11/29 05:09:01;;;;;;;15.93;14.30;;;;;;;5.70;100.00;99996.47;4896942;29;20587;-69
2022/11/29 05:11:55;;;;;;;17.90;16.10;;;;;;;5.59;100.00;99996.84;4888167;29;20688;-70
2022/11/29 05:15:07;;;;;;;18.90;17.10;;;;;;;5.77;100.00;100003.03;4923384;28;20299;-70
2022/11/29 05:17:49;;;;;;;18.57;16.87;;;;;;;5.86;100.00;100010.34;4954075;28;20310;-70
2022/11/29 05:20:23;;;;;;;17.63;15.63;;;;;;;5.92;100.00;100006.75;4989495;28;20539;-70
2022/11/29 05:23:16;;;;;;;17.70;15.90;;;;;;;5.80;100.00;100002.91;5015597;28;20189;-70
2022/11/29 05:25:53;;;;;;;15.97;14.37;;;;;;;5.86;100.00;100009.53;5034913;28;20189;-70
2022/11/29 05:28:21;;;;;;;18.20;16.40;;;;;;;6.01;100.00;100003.88;5032966;28;20181;-71
2022/11/29 05:31:05;;;;;;;17.23;15.53;;;;;;;5.98;100.00;100012.47;5024570;28;20226;-70
2022/11/29 05:33:57;;;;;;;17.23;15.53;;;;;;;6.02;100.00;100007.28;5022587;28;20659;-70
2022/11/29 05:36:31;;;;;;;18.33;16.53;;;;;;;6.10;100.00;100006.09;5016406;28;20534;-71
2022/11/29 05:39:19;;;;;;;17.63;15.50;;;;;;;5.95;100.00;100014.28;5017168;28;20206;-70
2022/11/29 05:42:24;;;;;;;17.73;16.03;;;;;;;6.08;100.00;100012.16;5014449;28;20229;-70
2022/11/29 05:44:57;;;;;;;17.00;15.33;;;;;;;6.16;100.00;100015.22;5020489;28;20250;-70
2022/11/29 05:47:34;;;;;;;17.50;15.63;;;;;;;6.17;100.00;100011.78;5024955;28;20189;-70
2022/11/29 05:50:02;;;;;;;17.47;15.77;;;;;;;6.12;100.00;100014.50;5034842;28;20630;-70
2022/11/29 05:52:51;;;;;;;15.57;14.13;;;;;;;5.96;100.00;100016.75;5006029;28;20614;-71
2022/11/29 05:55:55;;;;;;;15.87;14.33;;;;;;;5.89;100.00;100017.06;5034445;28;20233;-70
2022/11/29 05:58:47;;;;;;;17.93;16.03;;;;;;;5.96;100.00;100021.06;5015925;28;20212;-71
2022/11/29 06:01:22;;;;;;;16.97;15.23;;;;;;;6.05;100.00;100018.19;5022487;28;20813;-70
2022/11/29 06:03:56;;;;;;;17.90;16.20;;;;;;;6.12;100.00;100019.63;5022502;28;20173;-70
2022/11/29 06:06:34;;;;;;;17.37;15.57;;;;;;;6.16;100.00;100022.06;5033643;28;20204;-70
2022/11/29 06:09:35;;;;;;;17.17;15.57;;;;;;;6.20;100.00;100027.03;5032228;28;20562;-70
2022/11/29 06:12:14;;;;;;;17.73;15.93;;;;;;;6.14;100.00;100030.63;4995786;28;20246;-70
2022/11/29 06:15:29;;;;;;;16.93;15.33;;;;;;;6.17;100.00;100028.84;4998417;28;20212;-70
2022/11/29 06:18:22;;;;;;;17.70;15.80;;;;;;;6.05;100.00;100037.78;5033748;28;20205;-71
2022/11/29 06:21:36;;;;;;;17.53;15.87;;;;;;;5.95;100.00;100038.09;5012017;28;20236;-70
2022/11/29 06:24:26;;;;;;;17.20;15.17;;;;;;;6.00;100.00;100042.25;5037099;28;20644;-71
2022/11/29 06:27:04;;;;;;;16.20;14.60;;;;;;;6.10;100.00;100041.84;5033624;28;20258;-71
2022/11/29 06:29:41;;;;;;;18.10;16.20;;;;;;;6.20;100.00;100034.69;5016542;28;20189;-71
2022/11/29 06:32:36;;;;;;;18.00;16.20;;;;;;;6.14;100.00;100045.94;5039043;28;20317;-71
2022/11/29 06:35:08;;;;;;;16.17;14.67;;;;;;;6.01;100.00;100049.84;5032626;28;20193;-70
2022/11/29 06:37:37;;;;;;;17.43;15.63;;;;;;;6.02;100.00;100048.94;4999990;28;20208;-71
2022/11/29 06:40:03;;;;;;;18.10;16.33;;;;;;;5.98;100.00;100044.81;5016069;28;20545;-70
2022/11/29 06:42:29;;;;;;;18.60;15.00;;;;;;;5.96;100.00;100049.13;5037343;28;20221;-71
2022/11/29 06:44:54;;;;;;;17.00;15.30;;;;;;;5.97;100.00;100046.53;5033383;28;20636;-71
2022/11/29 06:47:23;;;;;;;35.77;18.67;;;;;;;6.00;100.00;100043.06;5032937;28;20221;-70
2022/11/29 06:49:55;;;;;;;240.23;44.10;;;;;;;5.93;100.00;100051.81;5033735;28;20189;-71
2022/11/29 06:52:24;;;;;;;142.63;32.63;;;;;;;5.98;100.00;100052.47;5021758;28;20212;-71
2022/11/29 06:55:02;;;;;;;161.53;34.33;;;;;;;6.14;100.00;100058.72;5033570;28;20234;-70
2022/11/29 06:57:44;;;;;;;73.57;22.23;;;;;;;6.24;100.00;100058.34;5032877;28;20196;-70
2022/11/29 07:00:20;;;;;;;20.43;16.47;;;;;;;6.16;100.00;100065.50;5038739;28;20265;-70
2022/11/29 07:03:23;;;;;;;32.07;18.63;;;;;;;6.12;100.00;100065.59;5026045;28;20621;-71
2022/11/29 07:05:49;;;;;;;21.13;15.83;;;;;;;6.42;100.00;100069.63;5022303;28;20278;-71
2022/11/29 07:08:22;;;;;;;25.27;16.47;;;;;;;6.40;100.00;100071.41;5034960;28;20328;-70
2022/11/29 07:10:51;;;;;;;40.93;18.87;;;;;;;6.22;100.00;100078.03;5037911;28;20268;-71
2022/11/29 07:13:18;;;;;;;40.43;17.80;;;;;;;6.04;100.00;100085.50;5047418;28;20606;-71
2022/11/29 07:15:52;;;;;;;41.57;19.13;;;;;;;6.17;100.00;100085.88;5048670;28;20189;-71
2022/11/29 07:18:58;;;;;;;36.17;18.13;;;;;;;6.30;100.00;100091.34;5032304;28;20197;-71
2022/11/29 07:21:35;;;;;;;24.83;17.20;;;;;;;6.37;100.00;100086.84;5035742;28;20754;-71
2022/11/29 07:24:20;;;;;;;19.70;15.77;;;;;;;6.30;100.00;100091.34;5032747;28;20176;-70
2022/11/29 07:27:01;;;;;;;17.30;15.70;;;;;;;6.46;100.00;100091.59;5019953;28;20178;-70
2022/11/29 07:29:36;;;;;;;18.50;16.60;;;;;;;6.39;100.00;100090.19;5011955;28;20190;-70
2022/11/29 07:32:13;;;;;;;18.37;15.07;;;;;;;6.45;100.00;100095.91;5033881;28;20582;-71
2022/11/29 07:35:00;;;;;;;18.53;15.23;;;;;;;6.31;100.00;100100.69;5048486;28;20200;-70
2022/11/29 07:38:00;;;;;;;20.20;16.57;;;;;;;6.38;100.00;100102.13;5017991;28;20243;-70
2022/11/29 07:40:44;;;;;;;16.67;15.00;;;;;;;6.38;100.00;100098.75;5010146;28;20229;-71
2022/11/29 07:43:19;;;;;;;16.77;15.13;;;;;;;6.39;100.00;100103.78;5018313;28;20197;-71
2022/11/29 07:45:44;;;;;;;17.17;14.77;;;;;;;6.46;100.00;100100.13;5047261;28;20235;-71
2022/11/29 07:48:11;;;;;;;20.53;16.20;;;;;;;6.61;100.00;100105.53;5013314;28;20201;-70
2022/11/29 07:50:37;;;;;;;15.53;14.03;;;;;;;6.74;100.00;100108.47;5008918;28;20240;-71
2022/11/29 07:53:02;;;;;;;18.67;16.67;;;;;;;6.77;100.00;100105.78;5024995;28;20784;-71
2022/11/29 07:55:28;;;;;;;17.53;15.77;;;;;;;6.72;100.00;100107.69;5032751;28;20194;-71
2022/11/29 07:57:54;;;;;;;17.10;15.40;;;;;;;6.74;100.00;100108.47;5032054;28;20230;-72
2022/11/29 08:00:20;;;;;;;18.27;15.40;;;;;;;6.82;100.00;100108.16;5009832;28;20239;-74
2022/11/29 08:02:49;;;;;;;17.20;15.50;;;;;;;6.75;100.00;100116.06;5021133;28;20174;-71
2022/11/29 08:05:15;;;;;;;16.97;15.20;;;;;;;6.86;100.00;100115.66;5027836;28;20658;-70
2022/11/29 08:07:40;;;;;;;53.13;30.87;;;;;;;6.84;100.00;100116.63;5046844;28;20264;-71
2022/11/29 08:10:09;;;;;;;16.37;14.77;;;;;;;7.00;100.00;100114.28;5022251;28;20318;-70
2022/11/29 08:12:34;;;;;;;16.47;14.77;;;;;;;7.03;100.00;100111.59;5029106;28;20193;-71
2022/11/29 08:15:00;;;;;;;17.93;16.03;;;;;;;6.94;100.00;100125.59;5031702;28;20185;-70
2022/11/29 08:17:25;;;;;;;15.80;14.20;;;;;;;7.09;100.00;100121.59;5033304;28;20617;-70
2022/11/29 08:19:51;;;;;;;17.20;15.60;;;;;;;7.14;100.00;100127.34;5039407;28;20178;-69
2022/11/29 08:22:16;;;;;;;17.30;15.63;;;;;;;7.09;100.00;100126.72;5017850;28;20229;-71
2022/11/29 08:24:41;;;;;;;21.70;16.20;;;;;;;7.16;100.00;100130.69;5031599;28;20197;-70
2022/11/29 08:27:07;;;;;;;17.60;15.77;;;;;;;7.09;100.00;100135.22;5031260;28;20189;-71
2022/11/29 08:29:32;;;;;;;18.20;16.03;;;;;;;7.11;100.00;100123.19;5031888;28;20633;-71
2022/11/29 08:31:57;;;;;;;18.57;14.50;;;;;;;7.10;100.00;100133.50;5005432;28;20641;-70
2022/11/29 08:34:23;;;;;;;16.83;15.03;;;;;;;7.22;100.00;100140.69;5013087;28;20175;-70
2022/11/29 08:36:49;;;;;;;15.93;14.30;;;;;;;7.21;100.00;100141.56;5010522;28;20182;-71
2022/11/29 08:39:15;;;;;;;16.93;15.23;;;;;;;7.46;100.00;100143.13;5042040;28;20216;-70
2022/11/29 08:41:41;;;;;;;18.30;14.80;;;;;;;7.48;100.00;100136.25;5032299;28;20213;-70
2022/11/29 08:44:07;;;;;;;16.73;14.40;;;;;;;7.23;100.00;100144.91;5034123;28;20656;-70
2022/11/29 08:49:17;;;;;;;16.73;15.00;;;;;;;7.43;100.00;100140.72;5031642;28;20277;-72
2022/11/29 08:51:42;;;;;;;21.33;15.40;;;;;;;7.40;100.00;100146.78;5033667;28;20336;-70
2022/11/29 08:54:08;;;;;;;18.37;15.73;;;;;;;7.38;100.00;100147.72;5034834;28;20181;-70
2022/11/29 08:56:36;;;;;;;19.07;15.53;;;;;;;7.33;100.00;100147.94;5011322;28;20178;-70
2022/11/29 08:59:02;;;;;;;26.30;17.33;;;;;;;7.29;100.00;100148.94;4996671;28;20212;-71
2022/11/29 09:01:28;;;;;;;18.77;15.40;;;;;;;7.14;100.00;100152.94;5019120;28;20226;-71
2022/11/29 09:04:03;;;;;;;16.40;14.70;;;;;;;6.97;100.00;100163.84;5023462;28;20264;-70
2022/11/29 09:06:40;;;;;;;17.17;15.37;;;;;;;6.95;100.00;100165.63;5029748;28;20223;-71
2022/11/29 09:09:06;;;;;;;17.87;15.20;;;;;;;7.08;100.00;100168.53;5031252;28;20593;-71
2022/11/29 09:11:33;;;;;;;18.73;15.90;;;;;;;7.21;100.00;100168.91;5015579;28;20320;-70
2022/11/29 09:14:02;;;;;;;19.03;15.23;;;;;;;7.19;100.00;100168.94;5016764;28;20189;-72
2022/11/29 09:16:31;;;;;;;17.67;15.50;;;;;;;7.20;100.00;100172.34;5030896;28;20190;-71
2022/11/29 09:18:57;;;;;;;18.83;15.83;;;;;;;7.32;100.00;100179.53;5014120;28;20210;-71
2022/11/29 09:21:24;;;;;;;19.23;14.90;;;;;;;7.40;100.00;100180.03;5025550;28;20708;-71
2022/11/29 09:23:58;;;;;;;16.17;14.57;;;;;;;7.36;100.00;100178.50;5018546;28;20182;-71
2022/11/29 09:26:26;;;;;;;16.67;13.40;;;;;;;7.15;100.00;100185.31;5029357;28;20189;-70
2022/11/29 09:28:52;;;;;;;16.90;15.10;;;;;;;7.27;100.00;100187.38;5030504;28;20197;-70
2022/11/29 09:31:19;;;;;;;15.53;14.03;;;;;;;7.09;100.00;100194.06;5028855;28;20225;-71
2022/11/29 09:33:45;;;;;;;17.30;14.70;;;;;;;7.18;100.00;100198.00;5019875;28;20179;-70
2022/11/29 09:36:11;;;;;;;18.90;16.17;;;;;;;7.32;100.00;100202.56;5029160;28;20177;-70
2022/11/29 09:38:37;;;;;;;16.87;15.23;;;;;;;7.28;100.00;100198.44;5043600;28;20198;-70
2022/11/29 09:41:17;;;;;;;16.87;14.37;;;;;;;7.14;100.00;100193.88;5025638;28;20744;-70
2022/11/29 09:44:08;;;;;;;16.77;14.13;;;;;;;7.24;100.00;100207.13;5019625;28;20180;-70
2022/11/29 09:46:59;;;;;;;19.23;14.70;;;;;;;7.50;100.00;100206.09;5028819;28;20195;-70
2022/11/29 09:49:48;;;;;;;15.77;14.13;;;;;;;7.35;100.00;100202.44;5034249;28;20196;-70
2022/11/29 09:52:32;;;;;;;17.63;14.37;;;;;;;7.42;100.00;100206.41;5039901;28;20380;-70
2022/11/29 09:55:16;;;;;;;15.67;14.03;;;;;;;7.62;100.00;100204.78;5033043;28;20196;-70
2022/11/29 09:57:43;;;;;;;16.37;14.73;;;;;;;7.65;100.00;100196.97;5023631;28;20200;-69
2022/11/29 10:00:20;;;;;;;21.60;13.77;;;;;;;7.83;100.00;100197.13;5023803;28;20190;-69
2022/11/29 10:02:52;;;;;;;18.37;14.47;;;;;;;7.89;100.00;100202.00;5027863;28;20194;-70
2022/11/29 10:05:43;;;;;;;16.50;14.70;;;;;;;7.73;100.00;100201.78;5014191;28;20182;-70
2022/11/29 10:08:26;;;;;;;17.37;14.00;;;;;;;7.69;100.00;100201.09;5015196;28;20190;-71
2022/11/29 10:11:07;;;;;;;16.67;14.17;;;;;;;7.72;100.00;100200.13;5029249;28;20316;-70
2022/11/29 10:13:39;;;;;;;20.30;14.37;;;;;;;7.50;100.00;100213.78;5020620;28;20178;-70
2022/11/29 10:16:14;;;;;;;17.30;14.60;;;;;;;7.57;100.00;100214.38;5029893;28;20240;-71
2022/11/29 10:18:48;;;;;;;17.03;15.33;;;;;;;7.74;100.00;100209.41;5026145;28;20201;-71
2022/11/29 10:21:24;;;;;;;21.03;15.73;;;;;;;7.67;100.00;100199.50;5033633;28;20231;-70
2022/11/29 10:23:56;;;;;;;18.73;15.23;;;;;;;7.79;100.00;100204.09;5037194;28;20637;-69
2022/11/29 10:26:23;;;;;;;17.80;15.27;;;;;;;7.75;100.00;100205.97;5031880;28;20892;-72
2022/11/29 10:28:49;;;;;;;22.03;16.80;;;;;;;7.77;100.00;100199.94;5026304;28;20192;-70
2022/11/29 10:31:33;;;;;;;17.30;15.40;;;;;;;7.55;100.00;100199.09;5023680;28;20225;-67
2022/11/29 10:34:06;;;;;;;21.63;15.03;;;;;;;7.94;100.00;100192.38;5013375;28;20315;-70
2022/11/29 10:36:45;;;;;;;16.97;15.37;;;;;;;7.85;100.00;100203.00;5022847;28;20650;-69
2022/11/29 10:39:20;;;;;;;23.73;15.77;;;;;;;7.84;100.00;100201.34;5030488;28;20209;-69
2022/11/29 10:41:50;;;;;;;20.10;16.13;;;;;;;7.81;100.00;100202.28;5028872;28;20865;-70
2022/11/29 10:44:16;;;;;;;17.83;15.80;;;;;;;7.94;100.00;100210.31;5029402;28;20201;-70
2022/11/29 10:46:41;;;;;;;20.77;16.60;;;;;;;8.11;100.00;100201.91;5023162;28;20646;-71
2022/11/29 10:49:14;;;;;;;19.93;15.20;;;;;;;7.93;100.00;100205.25;5030879;28;20278;-69
2022/11/29 10:51:39;;;;;;;20.70;16.53;;;;;;;7.92;100.00;100209.53;5019301;28;20229;-70
2022/11/29 10:54:39;;;;;;;21.13;16.13;;;;;;;7.98;100.00;100205.91;5017231;28;20544;-70
2022/11/29 10:57:16;;;;;;;21.50;16.10;;;;;;;7.88;100.00;100208.81;5020017;28;20198;-69
2022/11/29 10:59:58;;;;;;;19.50;17.33;;;;;;;8.06;100.00;100211.50;5015389;28;20178;-69
2022/11/29 11:02:24;;;;;;;18.97;16.97;;;;;;;8.26;100.00;100207.28;5034143;28;20232;-69
2022/11/29 11:04:49;;;;;;;22.40;17.30;;;;;;;8.15;100.00;100207.72;5032940;28;20178;-70
2022/11/29 11:07:31;;;;;;;18.27;16.37;;;;;;;8.22;100.00;100209.97;5032464;28;20707;-70
2022/11/29 11:09:58;;;;;;;21.47;17.57;;;;;;;8.42;100.00;100212.56;5031301;28;20218;-69
2022/11/29 11:12:30;;;;;;;17.97;16.07;;;;;;;8.22;100.00;100212.53;5012852;28;20242;-69
2022/11/29 11:15:15;;;;;;;19.13;16.20;;;;;;;8.33;100.00;100211.25;5032876;28;20229;-68
2022/11/29 11:17:58;;;;;;;20.13;15.87;;;;;;;8.44;100.00;100209.03;5014318;28;20795;-69
2022/11/29 11:20:26;;;;;;;18.97;15.30;;;;;;;8.51;100.00;100207.91;5025564;28;20937;-68
2022/11/29 11:23:02;;;;;;;19.10;16.37;;;;;;;8.49;100.00;100208.88;5027931;28;20695;-68
2022/11/29 11:25:34;;;;;;;16.97;14.73;;;;;;;8.58;100.00;100213.56;5015253;28;20290;-68
2022/11/29 11:28:20;;;;;;;16.97;15.17;;;;;;;8.63;100.00;100216.78;5013925;28;20196;-68
2022/11/29 11:31:07;;;;;;;20.10;14.43;;;;;;;8.64;100.00;100207.34;5009469;28;20237;-68
2022/11/29 11:33:38;;;;;;;20.10;15.73;;;;;;;8.67;100.00;100209.78;5013637;28;20175;-68
2022/11/29 11:36:19;;;;;;;20.13;15.33;;;;;;;8.65;100.00;100212.41;5032578;28;20181;-68
2022/11/29 11:39:09;;;;;;;18.07;15.20;;;;;;;8.85;100.00;100223.50;5012747;28;20214;-69
2022/11/29 11:44:33;;;;;;;19.07;16.17;;;;;;;8.97;100.00;100214.44;5033300;28;20624;-66
2022/11/29 11:47:00;;;;;;;20.23;16.83;;;;;;;9.11;100.00;100209.47;5030118;28;20186;-68
2022/11/29 11:49:35;;;;;;;18.90;15.17;;;;;;;9.11;100.00;100211.22;5038180;28;20174;-68
2022/11/29 11:52:04;;;;;;;22.87;16.10;;;;;;;9.22;100.00;100214.13;5020423;28;20248;-68
2022/11/29 11:54:30;;;;;;;17.53;14.43;;;;;;;9.26;100.00;100215.63;5032005;28;20182;-68
2022/11/29 11:56:56;;;;;;;17.83;15.03;;;;;;;9.39;100.00;100215.91;5030255;28;20177;-68
2022/11/29 11:59:25;;;;;;;16.60;14.90;;;;;;;9.55;100.00;100218.56;5031948;28;20558;-67